aviador You're here:

KJMR Decoded Metar

MORA in MN, USA
Report Time2018-01-19 10:55:00
UTC Time2018-01-19 11:18:19
Flight Rules vfr VFR
WindCalm
Visibility9999 m
Phenomena:N/A
Clouds:N/A
Expected CloudBase > 400 ft AGL from Temp-Dew spread
CeilingNone
Temp-3°C (ISA -16)
Dew Point-4°C (93% RH)
AAT-5.5°C
QNH1003 hPa
Density Alt-538 ft
Elevation1,014 ft
Report Wrong Elevation
Raw Report
METAR KJMR 191055Z AUTO 00000KT 10SM CLR M03/M04 A2962 RMK AO2=

Extra information for KJMR:More info

Metar Taf Metar & Taf Last 4 Metars F.Rules Stats Wind Profile Meteogram Temp Stats Airport Information Weather charts Add Link Nearby VenuesMetar ALERT Operation Metar Decoded Social comments

AIRNAV info for KJMR